createdAt,value
2016-06-22T00:00:47.742Z,25.1
2016-06-22T00:01:48.992Z,25.22
2016-06-22T00:02:48.339Z,25.16
2016-06-22T00:03:48.338Z,25.14
2016-06-22T00:04:48.967Z,25.11
2016-06-22T00:05:48.932Z,25.07
2016-06-22T00:06:48.303Z,25.13
2016-06-22T00:07:48.276Z,25.1
2016-06-22T00:08:48.900Z,25.04
2016-06-22T00:09:48.889Z,25.1
2016-06-22T00:10:48.248Z,25.01
2016-06-22T00:11:48.223Z,25.1
2016-06-22T00:12:48.863Z,25.16
2016-06-22T00:13:48.213Z,25.04
2016-06-22T00:14:48.819Z,24.93
2016-06-22T00:15:48.175Z,24.89
2016-06-22T00:16:48.804Z,24.92
2016-06-22T00:17:48.787Z,24.77
2016-06-22T00:18:48.154Z,24.84
2016-06-22T00:19:48.767Z,24.95
2016-06-22T00:20:48.750Z,24.93
2016-06-22T00:21:48.737Z,25.04
2016-06-22T00:22:48.736Z,25.01
2016-06-22T00:23:47.430Z,24.91
2016-06-22T00:24:47.433Z,24.86
2016-06-22T00:25:48.042Z,24.86
2016-06-22T00:26:48.673Z,24.91
2016-06-22T00:27:48.666Z,24.93
2016-06-22T00:28:48.647Z,24.96
2016-06-22T00:29:48.631Z,24.81
2016-06-22T00:30:48.635Z,24.88
2016-06-22T00:31:47.975Z,24.89
2016-06-22T00:32:48.585Z,24.95
2016-06-22T00:33:47.298Z,24.92
2016-06-22T00:34:48.571Z,24.86
2016-06-22T00:35:48.554Z,24.7
2016-06-22T00:36:48.538Z,24.63
2016-06-22T00:37:48.535Z,24.7
2016-06-22T00:38:48.522Z,24.8
2016-06-22T00:39:48.509Z,24.98
2016-06-22T00:40:47.860Z,24.93
2016-06-22T00:41:48.488Z,24.99
2016-06-22T00:42:47.826Z,24.98
2016-06-22T00:43:48.454Z,24.85
2016-06-22T00:44:48.437Z,24.74
2016-06-22T00:45:48.426Z,24.74
2016-06-22T00:46:48.423Z,24.7
2016-06-22T00:47:47.768Z,24.7
2016-06-22T00:48:48.380Z,24.89
2016-06-22T00:49:48.386Z,24.89
2016-06-22T00:50:48.368Z,24.69
2016-06-22T00:51:47.723Z,24.7
2016-06-22T00:52:48.329Z,24.74
2016-06-22T00:53:47.694Z,24.8
2016-06-22T00:54:48.317Z,24.74
2016-06-22T00:55:48.303Z,24.76
2016-06-22T00:56:47.630Z,24.7
2016-06-22T00:57:48.275Z,24.68
2016-06-22T00:58:46.986Z,24.7
2016-06-22T00:59:47.615Z,24.77
2016-06-22T01:00:48.239Z,24.85
2016-06-22T01:01:48.235Z,24.77
2016-06-22T01:02:46.934Z,24.76
2016-06-22T01:03:48.203Z,24.7
2016-06-22T01:04:47.543Z,24.76
2016-06-22T01:05:47.522Z,24.65
2016-06-22T01:06:48.158Z,24.73
2016-06-22T01:07:47.520Z,24.81
2016-06-22T01:08:47.488Z,24.95
2016-06-22T01:09:47.483Z,24.99
2016-06-22T01:10:47.480Z,24.95
2016-06-22T01:11:48.087Z,25.1
2016-06-22T01:12:48.082Z,25.13
2016-06-22T01:13:47.431Z,24.99
2016-06-22T01:14:47.402Z,24.93
2016-06-22T01:15:48.052Z,24.91
2016-06-22T01:16:48.026Z,24.91
2016-06-22T01:17:48.009Z,24.8
2016-06-22T01:18:46.712Z,24.78
2016-06-22T01:19:47.989Z,24.7
2016-06-22T01:20:47.962Z,24.54
2016-06-22T01:21:47.975Z,24.57
2016-06-22T01:22:47.942Z,24.88
2016-06-22T01:23:47.941Z,24.63
2016-06-22T01:24:47.924Z,24.7
2016-06-22T01:25:47.909Z,24.74
2016-06-22T01:26:47.250Z,24.77
2016-06-22T01:27:47.253Z,24.76
2016-06-22T01:28:47.867Z,24.78
2016-06-22T01:29:47.221Z,24.53
2016-06-22T01:30:47.853Z,24.57
2016-06-22T01:31:47.826Z,24.74
2016-06-22T01:32:47.815Z,24.91
2016-06-22T01:33:47.799Z,24.89
2016-06-22T01:34:47.789Z,24.93
2016-06-22T01:35:47.133Z,24.85
2016-06-22T01:36:47.758Z,24.84
2016-06-22T01:37:47.117Z,24.78
2016-06-22T01:38:47.738Z,24.77
2016-06-22T01:39:47.117Z,24.78
2016-06-22T01:40:47.082Z,24.6
2016-06-22T01:41:47.691Z,24.57
2016-06-22T01:42:47.710Z,24.76
2016-06-22T01:43:47.671Z,24.73
2016-06-22T01:44:47.035Z,24.6
2016-06-22T01:45:47.652Z,24.48
2016-06-22T01:46:47.641Z,24.55
2016-06-22T01:47:47.614Z,24.76
2016-06-22T01:48:47.606Z,24.74
2016-06-22T01:49:46.955Z,24.68
2016-06-22T01:50:47.622Z,24.88
2016-06-22T01:51:46.942Z,24.85
2016-06-22T01:52:47.560Z,24.86
2016-06-22T01:53:46.265Z,24.6
2016-06-22T01:54:47.538Z,24.77
2016-06-22T01:55:46.884Z,24.78
2016-06-22T01:56:46.896Z,24.76
2016-06-22T01:57:47.487Z,24.85
2016-06-22T01:58:47.471Z,24.92
2016-06-22T01:59:47.463Z,24.89
2016-06-22T02:00:46.817Z,24.86
2016-06-22T02:01:47.434Z,24.93
2016-06-22T02:02:47.414Z,24.85
2016-06-22T02:03:47.413Z,24.86
2016-06-22T02:04:46.129Z,24.88
2016-06-22T02:05:46.738Z,24.89
2016-06-22T02:06:47.371Z,24.92
2016-06-22T02:07:47.360Z,24.84
2016-06-22T02:08:46.711Z,24.92
2016-06-22T02:09:46.697Z,24.96
2016-06-22T02:10:47.327Z,24.84
2016-06-22T02:11:47.308Z,24.85
2016-06-22T02:12:46.660Z,24.95
2016-06-22T02:13:46.012Z,24.78
2016-06-22T02:14:47.269Z,24.74
2016-06-22T02:15:46.626Z,24.6
2016-06-22T02:16:45.963Z,24.63
2016-06-22T02:17:47.263Z,24.85
2016-06-22T02:18:46.582Z,24.68
2016-06-22T02:19:45.924Z,24.74
2016-06-22T02:20:47.183Z,24.66
2016-06-22T02:21:47.180Z,24.95
2016-06-22T02:22:47.173Z,24.89
2016-06-22T02:23:45.894Z,24.89
2016-06-22T02:24:47.141Z,24.93
2016-06-22T02:25:47.130Z,24.89
2016-06-22T02:26:47.156Z,24.88
2016-06-22T02:27:46.471Z,24.89
2016-06-22T02:28:46.447Z,24.8
2016-06-22T02:29:46.441Z,24.85
2016-06-22T02:30:45.795Z,24.89
2016-06-22T02:31:47.050Z,24.91
2016-06-22T02:32:47.058Z,24.89
2016-06-22T02:33:47.018Z,24.7
2016-06-22T02:34:47.014Z,24.68
2016-06-22T02:35:47.007Z,24.77
2016-06-22T02:36:46.353Z,24.84
2016-06-22T02:37:46.330Z,24.58
2016-06-22T02:38:46.339Z,24.48
2016-06-22T02:39:46.304Z,24.43
2016-06-22T02:40:46.922Z,24.5
2016-06-22T02:41:46.292Z,24.47
2016-06-22T02:42:46.912Z,24.63
2016-06-22T02:43:46.906Z,24.69
2016-06-22T02:44:46.878Z,24.76
2016-06-22T02:45:46.864Z,24.7
2016-06-22T02:46:46.245Z,24.58
2016-06-22T02:47:46.855Z,24.58
2016-06-22T02:48:45.562Z,24.76
2016-06-22T02:49:46.187Z,24.77
2016-06-22T02:50:46.793Z,24.76
2016-06-22T02:51:46.809Z,24.73
2016-06-22T02:52:46.780Z,24.8
2016-06-22T02:53:46.767Z,24.7
2016-06-22T02:54:46.759Z,24.78
2016-06-22T02:55:46.753Z,24.89
2016-06-22T02:56:46.718Z,24.91
2016-06-22T02:57:46.720Z,24.86
2016-06-22T02:58:46.062Z,24.88
2016-06-22T02:59:46.688Z,24.92
2016-06-22T03:00:46.664Z,24.93
2016-06-22T03:01:46.675Z,24.96
2016-06-22T03:02:46.640Z,24.86
2016-06-22T03:03:45.995Z,24.8
2016-06-22T03:04:46.629Z,24.68
2016-06-22T03:05:45.992Z,24.7
2016-06-22T03:06:45.951Z,24.73
2016-06-22T03:07:45.940Z,24.86
2016-06-22T03:08:45.930Z,24.91
2016-06-22T03:09:45.915Z,24.88
2016-06-22T03:10:45.891Z,24.86
2016-06-22T03:11:45.905Z,24.63
2016-06-22T03:12:46.516Z,24.66
2016-06-22T03:13:46.498Z,24.69
2016-06-22T03:14:46.506Z,24.74
2016-06-22T03:15:45.221Z,24.73
2016-06-22T03:16:45.824Z,24.73
2016-06-22T03:17:46.454Z,24.76
2016-06-22T03:18:46.432Z,24.69
2016-06-22T03:19:45.140Z,24.84
2016-06-22T03:20:46.412Z,24.96
2016-06-22T03:21:46.402Z,24.93
2016-06-22T03:22:46.383Z,24.96
2016-06-22T03:23:46.371Z,24.89
2016-06-22T03:24:45.735Z,24.74
2016-06-22T03:25:46.352Z,24.74
2016-06-22T03:26:46.333Z,24.7
2016-06-22T03:27:45.686Z,24.66
2016-06-22T03:28:46.304Z,24.58
2016-06-22T03:29:46.325Z,24.51
2016-06-22T03:30:46.276Z,24.61
2016-06-22T03:31:46.266Z,24.55
2016-06-22T03:32:45.642Z,24.68
2016-06-22T03:33:46.243Z,24.61
2016-06-22T03:34:46.242Z,24.54
2016-06-22T03:35:46.245Z,24.54
2016-06-22T03:36:46.215Z,24.68
2016-06-22T03:37:45.551Z,24.74
2016-06-22T03:38:46.211Z,24.74
2016-06-22T03:39:46.157Z,24.69
2016-06-22T03:40:46.164Z,24.76
2016-06-22T03:41:45.487Z,24.66
2016-06-22T03:42:45.486Z,24.3
2016-06-22T03:43:46.110Z,24.29
2016-06-22T03:44:46.130Z,24.35
2016-06-22T03:45:46.079Z,24.28
2016-06-22T03:46:46.073Z,24.23
2016-06-22T03:47:45.434Z,24.29
2016-06-22T03:48:45.414Z,24.4
2016-06-22T03:49:46.026Z,24.42
2016-06-22T03:50:46.016Z,24.54
2016-06-22T03:51:46.013Z,24.43
2016-06-22T03:52:45.368Z,24.4
2016-06-22T03:53:45.973Z,24.33
2016-06-22T03:54:45.984Z,24.24
2016-06-22T03:55:44.670Z,24.28
2016-06-22T03:56:45.937Z,24.24
2016-06-22T03:57:45.932Z,24.26
2016-06-22T03:58:44.648Z,24.33
2016-06-22T03:59:45.918Z,24.36
2016-06-22T04:00:45.898Z,24.38
2016-06-22T04:01:45.238Z,24.32
2016-06-22T04:02:45.223Z,24.35
2016-06-22T04:03:45.859Z,24.33
2016-06-22T04:04:45.841Z,24.3
2016-06-22T04:05:45.190Z,24.35
2016-06-22T04:06:45.164Z,24.26
2016-06-22T04:07:45.151Z,24.38
2016-06-22T04:08:45.784Z,24.38
2016-06-22T04:09:45.773Z,24.51
2016-06-22T04:10:45.753Z,24.4
2016-06-22T04:11:45.746Z,24.35
2016-06-22T04:12:45.727Z,24.35
2016-06-22T04:13:45.082Z,24.16
2016-06-22T04:14:45.702Z,24.18
2016-06-22T04:15:45.693Z,24.16
2016-06-22T04:16:45.679Z,24.24
2016-06-22T04:17:45.027Z,24.17
2016-06-22T04:18:45.008Z,24.13
2016-06-22T04:19:45.654Z,24.16
2016-06-22T04:20:45.656Z,24.01
2016-06-22T04:21:45.608Z,23.95
2016-06-22T04:22:45.597Z,23.96
2016-06-22T04:23:45.587Z,24.02
2016-06-22T04:24:45.576Z,24.1
2016-06-22T04:25:45.566Z,24.1
2016-06-22T04:26:45.566Z,24.13
2016-06-22T04:27:45.522Z,23.93
2016-06-22T04:28:45.520Z,23.98
2016-06-22T04:29:45.499Z,23.96
2016-06-22T04:30:45.476Z,24.1
2016-06-22T04:31:45.488Z,23.99
2016-06-22T04:32:44.819Z,23.95
2016-06-22T04:33:44.807Z,23.92
2016-06-22T04:34:45.447Z,23.81
2016-06-22T04:35:45.426Z,23.84
2016-06-22T04:36:45.406Z,24.01
2016-06-22T04:37:45.406Z,23.98
2016-06-22T04:38:44.748Z,24.01
2016-06-22T04:39:45.358Z,23.74
2016-06-22T04:40:45.368Z,23.86
2016-06-22T04:41:45.342Z,23.78
2016-06-22T04:42:44.687Z,23.73
2016-06-22T04:43:44.673Z,23.83
2016-06-22T04:44:44.663Z,23.69
2016-06-22T04:45:44.655Z,23.51
2016-06-22T04:46:45.273Z,23.58
2016-06-22T04:47:43.988Z,23.62
2016-06-22T04:48:44.606Z,23.5
2016-06-22T04:49:44.599Z,23.37
2016-06-22T04:50:44.587Z,23.18
2016-06-22T04:51:44.578Z,23.25
2016-06-22T04:52:44.559Z,23.31
2016-06-22T04:53:45.195Z,23.32
2016-06-22T04:54:45.167Z,23.34
2016-06-22T04:55:45.159Z,23.25
2016-06-22T04:56:44.512Z,23.24
2016-06-22T04:57:45.135Z,23.1
2016-06-22T04:58:45.127Z,22.99
2016-06-22T04:59:44.458Z,23.02
2016-06-22T05:00:44.449Z,22.98
2016-06-22T05:01:43.797Z,23
2016-06-22T05:02:44.421Z,23.05
2016-06-22T05:03:45.051Z,23.13
2016-06-22T05:04:44.384Z,23.06
2016-06-22T05:05:45.032Z,22.94
2016-06-22T05:06:44.370Z,22.88
2016-06-22T05:07:44.362Z,22.78
2016-06-22T05:08:44.990Z,22.93
2016-06-22T05:09:44.336Z,23
2016-06-22T05:10:44.309Z,22.93
2016-06-22T05:11:44.945Z,22.91
2016-06-22T05:12:44.931Z,22.98
2016-06-22T05:13:44.911Z,22.99
2016-06-22T05:14:44.915Z,23
2016-06-22T05:15:44.253Z,22.98
2016-06-22T05:16:44.878Z,22.91
2016-06-22T05:17:44.867Z,22.9
2016-06-22T05:18:44.855Z,22.96
2016-06-22T05:19:44.827Z,22.94
2016-06-22T05:20:44.830Z,22.88
2016-06-22T05:21:44.812Z,22.84
2016-06-22T05:22:44.793Z,22.9
2016-06-22T05:23:44.139Z,22.88
2016-06-22T05:24:44.767Z,22.96
2016-06-22T05:25:44.742Z,23.06
2016-06-22T05:26:44.743Z,22.99
2016-06-22T05:27:44.721Z,22.91
2016-06-22T05:28:44.704Z,22.96
2016-06-22T05:29:44.067Z,23.08
2016-06-22T05:30:44.678Z,22.93
2016-06-22T05:31:44.677Z,22.91
2016-06-22T05:32:44.020Z,22.91
2016-06-22T05:33:43.998Z,22.99
2016-06-22T05:34:43.994Z,23.06
2016-06-22T05:35:43.980Z,23.09
2016-06-22T05:36:44.596Z,22.94
2016-06-22T05:37:43.314Z,22.93
2016-06-22T05:38:44.575Z,22.87
2016-06-22T05:39:43.922Z,22.63
2016-06-22T05:40:44.555Z,22.63
2016-06-22T05:41:44.534Z,22.66
2016-06-22T05:42:43.871Z,22.68
2016-06-22T05:43:44.499Z,22.72
2016-06-22T05:44:44.490Z,22.75
2016-06-22T05:45:44.462Z,22.84
2016-06-22T05:46:44.457Z,22.78
2016-06-22T05:47:43.810Z,22.83
2016-06-22T05:48:44.431Z,22.73
2016-06-22T05:49:43.783Z,22.78
2016-06-22T05:50:44.405Z,22.93
2016-06-22T05:51:44.394Z,22.9
2016-06-22T05:52:44.385Z,22.66
2016-06-22T05:53:44.370Z,22.73
2016-06-22T05:54:44.397Z,22.83
2016-06-22T05:55:43.701Z,22.81
2016-06-22T05:56:44.330Z,22.78
2016-06-22T05:57:43.675Z,22.73
2016-06-22T05:58:44.298Z,22.73
2016-06-22T05:59:44.286Z,22.81
2016-06-22T06:00:44.261Z,22.99
2016-06-22T06:01:44.264Z,22.75
2016-06-22T06:02:42.965Z,22.85
2016-06-22T06:03:44.221Z,22.73
2016-06-22T06:04:44.215Z,22.76
2016-06-22T06:05:43.558Z,22.93
2016-06-22T06:06:44.182Z,22.93
2016-06-22T06:07:44.178Z,22.91
2016-06-22T06:08:42.878Z,22.76
2016-06-22T06:09:44.141Z,22.7
2016-06-22T06:10:44.141Z,22.72
2016-06-22T06:11:43.469Z,22.6
2016-06-22T06:12:44.113Z,22.73
2016-06-22T06:13:44.086Z,22.9
2016-06-22T06:14:43.427Z,22.87
2016-06-22T06:15:43.427Z,22.81
2016-06-22T06:16:44.055Z,22.93
2016-06-22T06:17:43.392Z,23.03
2016-06-22T06:18:43.380Z,22.99
2016-06-22T06:19:42.738Z,22.94
2016-06-22T06:20:43.998Z,22.98
2016-06-22T06:21:43.334Z,23.12
2016-06-22T06:22:43.344Z,23.08
2016-06-22T06:23:43.305Z,23.12
2016-06-22T06:24:43.951Z,23.05
2016-06-22T06:25:43.932Z,23.06
2016-06-22T06:26:43.911Z,22.93
2016-06-22T06:27:43.264Z,22.84
2016-06-22T06:28:43.896Z,22.84
2016-06-22T06:29:43.230Z,22.91
2016-06-22T06:30:43.855Z,23.02
2016-06-22T06:31:43.850Z,22.94
2016-06-22T06:32:43.827Z,22.68
2016-06-22T06:33:43.173Z,22.78
2016-06-22T06:34:43.806Z,22.8
2016-06-22T06:35:43.793Z,22.91
2016-06-22T06:36:43.783Z,22.94
2016-06-22T06:37:43.751Z,22.94
2016-06-22T06:38:43.112Z,23
2016-06-22T06:39:43.736Z,23.09
2016-06-22T06:40:43.089Z,23.12
2016-06-22T06:41:43.748Z,23.2
2016-06-22T06:42:43.693Z,23.08
2016-06-22T06:43:43.048Z,22.91
2016-06-22T06:44:43.021Z,23.03
2016-06-22T06:45:43.652Z,22.94
2016-06-22T06:46:42.990Z,22.81
2016-06-22T06:47:43.627Z,22.93
2016-06-22T06:48:43.616Z,23.12
2016-06-22T06:49:43.589Z,23.12
2016-06-22T06:50:43.577Z,23.15
2016-06-22T06:51:42.281Z,23.21
2016-06-22T06:52:42.916Z,23.24
2016-06-22T06:53:43.545Z,23
2016-06-22T06:54:42.903Z,23.1
2016-06-22T06:55:43.533Z,23.09
2016-06-22T06:56:43.503Z,23.32
2016-06-22T06:57:42.854Z,23.37
2016-06-22T06:58:42.837Z,23.44
2016-06-22T06:59:42.827Z,23.5
2016-06-22T07:00:42.807Z,23.44
2016-06-22T07:01:43.431Z,23.36
2016-06-22T07:02:43.438Z,23.21
2016-06-22T07:03:43.398Z,23.25
2016-06-22T07:04:43.385Z,23.25
2016-06-22T07:05:42.743Z,23.13
2016-06-22T07:06:42.736Z,23.23
2016-06-22T07:07:42.073Z,23.2
2016-06-22T07:08:43.363Z,23.23
2016-06-22T07:09:42.698Z,23.09
2016-06-22T07:10:42.677Z,23.15
2016-06-22T07:11:42.015Z,23.08
2016-06-22T07:12:42.646Z,23.15
2016-06-22T07:13:41.993Z,23.36
2016-06-22T07:14:43.262Z,23.47
2016-06-22T07:15:43.249Z,23.5
2016-06-22T07:16:43.221Z,23.62
2016-06-22T07:17:44.085Z,23.65
2016-06-22T07:18:43.259Z,23.84
2016-06-22T07:19:42.994Z,23.86
2016-06-22T07:20:43.185Z,23.66
2016-06-22T07:21:43.379Z,23.58
2016-06-22T07:22:43.149Z,23.55
2016-06-22T07:23:43.142Z,23.59
2016-06-22T07:24:41.863Z,23.61
2016-06-22T07:25:44.198Z,23.62
2016-06-22T07:26:43.098Z,23.44
2016-06-22T07:27:42.597Z,23.56
2016-06-22T07:28:43.199Z,23.43
2016-06-22T07:29:42.422Z,23.34
2016-06-22T07:30:43.081Z,23.36
2016-06-22T07:31:42.548Z,23.44
2016-06-22T07:32:43.130Z,23.65
2016-06-22T07:33:42.448Z,23.55
2016-06-22T07:34:43.120Z,23.71
2016-06-22T07:35:42.966Z,23.63
2016-06-22T07:36:42.331Z,23.62
2016-06-22T07:37:43.037Z,23.58
2016-06-22T07:38:42.286Z,23.66
2016-06-22T07:39:42.658Z,23.73
2016-06-22T07:40:43.029Z,23.84
2016-06-22T07:41:43.121Z,23.63
2016-06-22T07:42:42.288Z,23.71
2016-06-22T07:43:42.869Z,23.84
2016-06-22T07:44:42.861Z,23.74
2016-06-22T07:45:42.923Z,23.61
2016-06-22T07:46:42.822Z,23.51
2016-06-22T07:47:42.175Z,23.63
2016-06-22T07:48:42.166Z,23.68
2016-06-22T07:49:42.787Z,23.66
2016-06-22T07:50:42.768Z,23.84
2016-06-22T07:51:42.795Z,23.8
2016-06-22T07:52:42.742Z,23.8
2016-06-22T07:53:42.739Z,23.73
2016-06-22T07:54:42.721Z,23.8
2016-06-22T07:55:42.730Z,23.71
2016-06-22T07:56:42.053Z,23.78
2016-06-22T07:57:42.035Z,23.65
2016-06-22T07:58:42.032Z,23.65
2016-06-22T07:59:42.662Z,23.71
2016-06-22T08:00:42.642Z,23.76
2016-06-22T08:01:42.618Z,23.69
2016-06-22T08:02:41.965Z,23.76
2016-06-22T08:03:41.958Z,23.86
2016-06-22T08:04:42.595Z,23.96
2016-06-22T08:05:41.940Z,24.08
2016-06-22T08:06:41.295Z,24.13
2016-06-22T08:07:41.906Z,24.17
2016-06-22T08:08:42.546Z,24.14
2016-06-22T08:09:41.890Z,23.99
2016-06-22T08:10:42.513Z,24.17
2016-06-22T08:11:41.865Z,24.23
2016-06-22T08:12:42.472Z,24.32
2016-06-22T08:13:42.529Z,24.24
2016-06-22T08:14:42.467Z,24.28
2016-06-22T08:15:41.798Z,24.32
2016-06-22T08:16:42.434Z,24.48
2016-06-22T08:17:41.789Z,24.47
2016-06-22T08:18:42.399Z,24.51
2016-06-22T08:19:42.401Z,24.54
2016-06-22T08:20:41.745Z,24.51
2016-06-22T08:21:42.364Z,24.57
2016-06-22T08:22:42.359Z,24.5
2016-06-22T08:23:41.710Z,24.65
2016-06-22T08:24:41.681Z,24.63
2016-06-22T08:25:42.312Z,24.8
2016-06-22T08:26:41.654Z,24.96
2016-06-22T08:27:42.272Z,24.63
2016-06-22T08:28:42.269Z,24.73
2016-06-22T08:29:42.299Z,24.76
2016-06-22T08:30:42.250Z,24.68
2016-06-22T08:31:41.605Z,24.88
2016-06-22T08:32:42.222Z,24.92
2016-06-22T08:33:42.226Z,24.89
2016-06-22T08:34:42.190Z,24.93
2016-06-22T08:35:42.188Z,25.1
2016-06-22T08:36:42.167Z,25.1
2016-06-22T08:37:42.150Z,25.25
2016-06-22T08:38:42.144Z,25.21
2016-06-22T08:39:41.506Z,25.31
2016-06-22T08:40:42.127Z,25.18
2016-06-22T08:41:42.114Z,25.23
2016-06-22T08:42:42.094Z,25.21
2016-06-22T08:43:42.081Z,25.31
2016-06-22T08:44:41.422Z,25.22
2016-06-22T08:45:42.052Z,25.33
2016-06-22T08:46:41.391Z,25.41
2016-06-22T08:47:41.391Z,25.26
2016-06-22T08:48:41.382Z,25.16
2016-06-22T08:49:42.014Z,25.18
2016-06-22T08:50:42.012Z,25.22
2016-06-22T08:51:41.969Z,25.03
2016-06-22T08:52:41.958Z,25.1
2016-06-22T08:53:41.951Z,25.11
2016-06-22T08:54:41.299Z,25.06
2016-06-22T08:55:41.276Z,25.25
2016-06-22T08:56:41.276Z,25.14
2016-06-22T08:57:41.265Z,25.17
2016-06-22T08:58:41.894Z,25.18
2016-06-22T08:59:41.891Z,25.1
2016-06-22T09:00:41.888Z,25.01
2016-06-22T09:01:41.222Z,25.04
2016-06-22T09:02:41.847Z,24.92
2016-06-22T09:03:41.828Z,24.96
2016-06-22T09:04:41.826Z,25.06
2016-06-22T09:05:41.166Z,25.16
2016-06-22T09:06:41.149Z,25.18
2016-06-22T09:07:41.141Z,25.38
2016-06-22T09:08:41.156Z,25.17
2016-06-22T09:09:41.132Z,25.28
2016-06-22T09:10:41.759Z,25.21
2016-06-22T09:11:41.099Z,25.41
2016-06-22T09:12:41.743Z,25.44
2016-06-22T09:13:41.703Z,25.43
2016-06-22T09:14:41.682Z,25.55
2016-06-22T09:15:41.038Z,25.66
2016-06-22T09:16:41.678Z,25.59
2016-06-22T09:17:41.651Z,25.58
2016-06-22T09:18:41.651Z,25.43
2016-06-22T09:19:41.011Z,25.48
2016-06-22T09:20:40.983Z,25.47
2016-06-22T09:21:41.594Z,25.54
2016-06-22T09:22:40.324Z,25.6
2016-06-22T09:23:40.941Z,25.68
2016-06-22T09:24:41.567Z,25.66
2016-06-22T09:25:40.917Z,25.69
2016-06-22T09:26:41.549Z,25.69
2016-06-22T09:27:41.547Z,25.66
2016-06-22T09:28:40.238Z,25.46
2016-06-22T09:29:41.517Z,25.55
2016-06-22T09:30:40.220Z,25.48
2016-06-22T09:31:40.862Z,25.51
2016-06-22T09:32:55.633Z,25.46
2016-06-22T09:33:40.836Z,25.55
2016-06-22T09:34:40.822Z,25.58
2016-06-22T09:35:41.481Z,25.59
2016-06-22T09:36:41.424Z,25.72
2016-06-22T09:37:40.771Z,25.69
2016-06-22T09:38:40.761Z,25.73
2016-06-22T09:39:41.382Z,25.62
2016-06-22T09:40:40.734Z,25.9
2016-06-22T09:41:41.373Z,26
2016-06-22T09:42:41.347Z,26.09
2016-06-22T09:43:40.714Z,26.13
2016-06-22T09:44:40.693Z,26.19
2016-06-22T09:45:40.671Z,26.13
2016-06-22T09:46:40.022Z,26.21
2016-06-22T09:47:40.653Z,25.85
2016-06-22T09:48:40.639Z,25.91
2016-06-22T09:49:41.275Z,25.9
2016-06-22T09:50:40.621Z,26.09
2016-06-22T09:51:41.243Z,25.91
2016-06-22T09:52:40.639Z,25.99
2016-06-22T09:53:40.606Z,25.93
2016-06-22T09:54:41.208Z,26.07
2016-06-22T09:55:41.197Z,26.19
2016-06-22T09:56:41.169Z,26.23
2016-06-22T09:57:41.175Z,26.31
2016-06-22T09:58:41.159Z,26.45
2016-06-22T09:59:40.482Z,26.43
2016-06-22T10:00:39.851Z,26.48
2016-06-22T10:01:40.487Z,26.52
2016-06-22T10:02:40.456Z,26.38
2016-06-22T10:03:41.096Z,26.38
2016-06-22T10:04:41.097Z,26.43
2016-06-22T10:05:40.434Z,26.48
2016-06-22T10:06:41.058Z,26.47
2016-06-22T10:07:41.053Z,26.66
2016-06-22T10:08:40.383Z,26.71
2016-06-22T10:09:41.011Z,26.89
2016-06-22T10:10:41.029Z,26.88
2016-06-22T10:11:40.995Z,26.89
2016-06-22T10:12:40.999Z,26.97
2016-06-22T10:13:40.335Z,27.08
2016-06-22T10:14:39.687Z,27.07
2016-06-22T10:15:40.952Z,27.21
2016-06-22T10:16:40.934Z,27.29
2016-06-22T10:17:40.276Z,27.39
2016-06-22T10:18:40.909Z,27.4
2016-06-22T10:19:40.948Z,27.49
2016-06-22T10:20:40.894Z,27.51
2016-06-22T10:21:40.887Z,27.64
2016-06-22T10:22:40.233Z,27.75
2016-06-22T10:23:40.861Z,27.82
2016-06-22T10:24:40.850Z,27.95
2016-06-22T10:25:40.828Z,27.98
2016-06-22T10:26:40.879Z,27.92
2016-06-22T10:27:40.847Z,28.02
2016-06-22T10:28:40.616Z,28.15
2016-06-22T10:29:40.141Z,28.47
2016-06-22T10:30:40.772Z,28.52
2016-06-22T10:31:40.123Z,28.63
2016-06-22T10:32:40.105Z,28.62
2016-06-22T10:33:40.758Z,28.54
2016-06-22T10:34:39.472Z,28.56
2016-06-22T10:35:40.735Z,28.74
2016-06-22T10:36:40.100Z,28.85
2016-06-22T10:37:40.074Z,28.93
2016-06-22T10:38:40.715Z,28.84
2016-06-22T10:39:40.053Z,29.01
2016-06-22T10:40:40.699Z,29.13
2016-06-22T10:41:40.661Z,29.13
2016-06-22T10:42:40.011Z,29.17
2016-06-22T10:43:40.638Z,29.13
2016-06-22T10:44:39.981Z,29.29
2016-06-22T10:45:40.001Z,29.16
2016-06-22T10:46:39.984Z,29.19
2016-06-22T10:47:39.986Z,29.22
2016-06-22T10:48:39.965Z,29.35
2016-06-22T10:49:40.581Z,29.39
2016-06-22T10:50:40.579Z,29.49
2016-06-22T10:51:39.921Z,29.44
2016-06-22T10:52:40.563Z,29.59
2016-06-22T10:53:40.535Z,29.86
2016-06-22T10:54:40.533Z,30
2016-06-22T10:55:39.994Z,30.1
2016-06-22T10:56:40.498Z,30.05
2016-06-22T10:57:40.493Z,30.31
2016-06-22T10:58:40.485Z,30.16
2016-06-22T10:59:39.970Z,30.21
2016-06-22T11:00:40.464Z,30.03
2016-06-22T11:01:39.171Z,30.23
2016-06-22T11:02:39.794Z,30.3
2016-06-22T11:03:40.542Z,30.44
2016-06-22T11:04:39.788Z,30.39
2016-06-22T11:05:41.669Z,30.4
2016-06-22T11:06:40.426Z,30.39
2016-06-22T11:07:40.438Z,30.43
2016-06-22T11:08:40.398Z,30.65
2016-06-22T11:09:39.140Z,30.75
2016-06-22T11:10:40.406Z,30.68
2016-06-22T11:11:40.376Z,30.72
2016-06-22T11:12:39.723Z,30.88
2016-06-22T11:13:40.415Z,30.87
2016-06-22T11:14:40.339Z,30.61
2016-06-22T11:15:40.324Z,30.62
2016-06-22T11:17:40.295Z,30.16
2016-06-22T11:18:40.283Z,30.24
2016-06-22T11:19:40.312Z,30.28
2016-06-22T11:20:39.643Z,30.18
2016-06-22T11:21:39.635Z,30.19
2016-06-22T11:22:39.646Z,30.02
2016-06-22T11:23:38.942Z,30.3
2016-06-22T11:24:40.230Z,30.68
2016-06-22T11:25:40.241Z,30.78
2016-06-22T11:26:39.574Z,30.77
2016-06-22T11:27:40.218Z,30.92
2016-06-22T11:28:39.553Z,30.88
2016-06-22T11:29:39.554Z,30.73
2016-06-22T11:30:40.185Z,30.48
2016-06-22T11:31:40.225Z,30.47
2016-06-22T11:32:39.523Z,30.44
2016-06-22T11:33:40.160Z,30.75
2016-06-22T11:34:39.499Z,30.65
2016-06-22T11:35:40.137Z,30.91
2016-06-22T11:36:39.688Z,30.63
2016-06-22T11:37:40.109Z,30.54
2016-06-22T11:38:40.121Z,30.66
2016-06-22T11:39:40.099Z,30.51
2016-06-22T11:40:40.088Z,30.61
2016-06-22T11:41:39.461Z,30.7
2016-06-22T11:42:40.072Z,30.77
2016-06-22T11:43:39.423Z,31.02
2016-06-22T11:44:39.463Z,31.46
2016-06-22T11:45:39.413Z,31.71
2016-06-22T11:46:40.062Z,32.07
2016-06-22T11:47:40.044Z,32.14
2016-06-22T11:48:40.068Z,32.04
2016-06-22T11:49:39.450Z,31.74
2016-06-22T11:50:40.022Z,32.15
2016-06-22T11:51:40.026Z,32.15
2016-06-22T11:52:39.394Z,32.46
2016-06-22T11:53:39.386Z,33.05
2016-06-22T11:54:40.019Z,33.04
2016-06-22T11:55:39.381Z,33.52
2016-06-22T11:56:40.019Z,33.42
2016-06-22T11:57:39.375Z,33.43
2016-06-22T11:58:40.074Z,33.28
2016-06-22T11:59:39.999Z,33.23
2016-06-22T12:00:40.037Z,33.77
2016-06-22T12:01:40.001Z,33.9
2016-06-22T12:02:39.346Z,34.25
2016-06-22T12:03:39.389Z,34.47
2016-06-22T12:04:39.356Z,34.4
2016-06-22T12:05:40.017Z,34.61
2016-06-22T12:06:40.007Z,34.96
2016-06-22T12:07:39.989Z,35.34
2016-06-22T12:08:39.354Z,35.08
2016-06-22T12:09:39.363Z,34.95
2016-06-22T12:10:39.983Z,35.3
2016-06-22T12:11:39.994Z,35.66
2016-06-22T12:12:39.995Z,35.83
2016-06-22T12:13:39.351Z,35.74
2016-06-22T12:14:39.378Z,35.97
2016-06-22T12:15:40.000Z,35.79
2016-06-22T12:16:40.049Z,36.35
2016-06-22T12:17:39.982Z,36.17
2016-06-22T12:18:39.375Z,36.3
2016-06-22T12:19:39.993Z,36.17
2016-06-22T12:20:39.998Z,36.27
2016-06-22T12:21:39.383Z,36.16
2016-06-22T12:22:40.019Z,36.08
2016-06-22T12:23:40.015Z,36.27
2016-06-22T12:24:40.010Z,36.36
2016-06-22T12:25:40.010Z,36.64
2016-06-22T12:26:40.034Z,36.3
2016-06-22T12:27:39.376Z,36.62
2016-06-22T12:28:40.045Z,36.62
2016-06-22T12:29:39.369Z,36.98
2016-06-22T12:30:40.011Z,37.1
2016-06-22T12:31:40.016Z,36.68
2016-06-22T12:32:39.370Z,36.73
2016-06-22T12:33:40.035Z,36.91
2016-06-22T12:34:39.419Z,37.42
2016-06-22T12:35:39.378Z,36.98
2016-06-22T12:36:40.006Z,37.56
2016-06-22T12:37:39.372Z,37.93
2016-06-22T12:38:40.028Z,38.58
2016-06-22T12:39:39.390Z,38.57
2016-06-22T12:40:39.378Z,38.48
2016-06-22T12:41:39.380Z,38.14
2016-06-22T12:42:39.405Z,38.21
2016-06-22T12:43:40.095Z,37.94
2016-06-22T12:44:40.041Z,37.86
2016-06-22T12:45:40.035Z,37.89
2016-06-22T12:46:39.387Z,37.77
2016-06-22T12:47:39.425Z,37.67
2016-06-22T12:48:39.434Z,37.6
2016-06-22T12:49:39.391Z,37.6
2016-06-22T12:50:39.405Z,37.68
2016-06-22T12:51:40.029Z,37.39
2016-06-22T12:52:39.418Z,37.4
2016-06-22T12:53:39.430Z,37.92
2016-06-22T12:54:40.072Z,37.67
2016-06-22T12:55:40.050Z,37.35
2016-06-22T12:56:40.063Z,37.11